Cincinnati Municipal Airport Lunken Field
KLUK : now visible

Airfield :











YOU CAN JOIN US ON...

 
LOGIN :

Register | Disclaimer

   EN    FR    IT 

 









Legend :    VFR   Marginal VFR   IFR   Intensive IFR   Very Intensive IFR
Visi :
Ceiling :
>= 8 km
>= 3000ft
5 to 8 km
1000 to 3000 ft
1500m to 5 km
500 to 1000 ft
800 to 1500m
200 to 500 ft
< 800m
< 200 ft
Symbols :   Thunderstorms  Fog  Heavy snow  Heavy precipitations  Wind > 20 kt






- Airport Elevation : 483 ft
- IATA code : LUK


KLUK - Cincinnati Municipal Lunken Field

CURRENT METAR :
  • 021753Z 00000KT 10SM FEW050 BKN060 25/14 A3012 RMK AO2 SLP198 T02500139 10256 20144 58007

EXPIRED METARs :
  • 021653Z 04007KT 10SM SCT043 BKN050 25/15 A3013 RMK AO2 SLP201 T02500150
  • 021553Z 03007KT 10SM FEW035 23/16 A3014 RMK AO2 SLP204 T02330156

TAF KLUK
Valid from the 02 at 18:00 until the 03 at 18:00 UTC


021750Z 0218/0318 04006KT P6SM SCT050
FM030100 05004KT P6SM SKC
FM030600 00000KT 3SM BR SKC
TEMPO 0309/0312 1SM BR
FM031300 05004KT P6SM SKC
FM031600 06005KT P6SM SCT050
KZID FIR / North America



MET'MAP, your aeronautical weather chart ! - Copyright ORBIFLY December 2007 - Disclaimer

ORBIFLY MET'MAP TEAM :

Programming & Development : Alexandra Zaïnal
Concept & original design : Baudouin d'Aumeries
Assistance for programming : Marc-Olivier Méhu
Technical & hardware support : Manuel Goepfert

Contact : metmap@orbifly.com




SOURCES & CREDITS :

   NOAA       Earth
Advisory